Time;durP1;ratioP1;P1;durP2;ratioP2;P2;SDS_P1;SDS_P2;PMS_P1;PMS_P2;Temp;Humidity;BMP_temperature;BMP_pressure;BME280_temperature;BME280_humidity;BME280_pressure;Samples;Min_cycle;Max_cycle;Signal;HPM_P1;HPM_P2
2022/05/22 00:00:09;;;;;;;6.57;2.13;;;;;;;19.41;nan;100300.44;5085134;28;20036;-71
2022/05/22 00:02:34;;;;;;;6.38;1.90;;;;;;;19.34;nan;100304.25;5089747;28;20038;-71
2022/05/22 00:05:00;;;;;;;5.90;2.10;;;;;;;19.32;nan;100295.75;5097926;28;20032;-70
2022/05/22 00:07:26;;;;;;;7.22;2.60;;;;;;;19.33;nan;100297.34;5091810;28;20370;-70
2022/05/22 00:09:51;;;;;;;5.10;1.90;;;;;;;19.30;nan;100308.59;5085483;28;20028;-70
2022/05/22 00:12:16;;;;;;;2.80;1.83;;;;;;;19.24;nan;100290.25;5093250;28;20036;-70
2022/05/22 00:14:42;;;;;;;3.20;1.70;;;;;;;19.21;nan;100352.22;5090848;28;20485;-70
2022/05/22 00:17:08;;;;;;;7.20;1.77;;;;;;;;;;5088716;28;20036;-70
2022/05/22 00:19:37;;;;;;;6.10;1.88;;;;;;;19.01;nan;100292.63;5079089;28;20470;-70
2022/05/22 00:22:04;;;;;;;6.20;1.73;;;;;;;18.95;nan;100375.69;5081865;28;20028;-70
2022/05/22 00:24:31;;;;;;;10.48;2.05;;;;;;;18.90;nan;100299.16;5074238;28;20035;-70
2022/05/22 00:26:57;;;;;;;3.75;1.50;;;;;;;18.82;nan;100337.09;5092442;27;20040;-70
2022/05/22 00:29:23;;;;;;;3.58;1.80;;;;;;;18.81;nan;100352.31;5078777;28;20390;-70
2022/05/22 00:31:48;;;;;;;3.00;1.95;;;;;;;18.75;nan;100305.41;5086304;28;20032;-70
2022/05/22 00:34:14;;;;;;;5.28;1.80;;;;;;;18.64;nan;100282.56;5085891;28;20044;-70
2022/05/22 00:36:40;;;;;;;5.25;1.48;;;;;;;18.55;nan;100292.25;5084628;28;20055;-71
2022/05/22 00:39:06;;;;;;;4.55;1.58;;;;;;;18.54;nan;100333.34;5080188;28;20923;-70
2022/05/22 00:41:32;;;;;;;1.98;1.30;;;;;;;;;;5085354;28;20028;-70
2022/05/22 00:44:00;;;;;;;7.72;1.60;;;;;;;18.43;nan;100292.63;5085327;28;20047;-70
2022/05/22 00:46:29;;;;;;;5.72;1.60;;;;;;;18.38;nan;100288.13;5082503;28;20058;-71
2022/05/22 00:49:02;;;;;;;5.57;2.03;;;;;;;18.32;nan;100293.78;5075502;28;20119;-71
2022/05/22 00:51:33;;;;;;;3.35;1.42;;;;;;;;;;5092610;28;20037;-71
2022/05/22 00:54:00;;;;;;;3.20;2.25;;;;;;;;;;5081050;28;20044;-70
2022/05/22 00:56:35;;;;;;;4.45;1.60;;;;;;;18.10;nan;100303.03;5085755;28;20091;-71
2022/05/22 00:59:04;;;;;;;4.72;1.60;;;;;;;17.98;nan;100295.38;5076031;28;20482;-72
2022/05/22 01:01:30;;;;;;;;;;;;;;;17.97;nan;100282.31;5084093;28;20066;-70
2022/05/22 01:03:55;;;;;;;3.22;1.55;;;;;;;;;;5081243;28;20573;-70
2022/05/22 01:06:24;;;;;;;5.35;1.48;;;;;;;;;;5090212;28;20536;-71
2022/05/22 01:08:50;;;;;;;4.37;1.60;;;;;;;;;;5072172;28;20037;-70
2022/05/22 01:11:28;;;;;;;2.45;1.30;;;;;;;17.77;nan;100293.88;5081295;28;20295;-64
2022/05/22 01:13:58;;;;;;;7.07;1.50;;;;;;;17.76;nan;100308.25;5078239;28;20124;-65
2022/05/22 01:16:25;;;;;;;6.05;1.60;;;;;;;17.72;nan;100288.53;5080309;28;20027;-63
2022/05/22 01:18:54;;;;;;;4.78;1.52;;;;;;;;;;5078503;28;20032;-64
2022/05/22 01:21:24;;;;;;;3.92;1.55;;;;;;;;;;5086435;28;20040;-70
2022/05/22 01:23:50;;;;;;;2.72;1.55;;;;;;;;;;5105299;28;20063;-66
2022/05/22 01:26:16;;;;;;;4.75;1.42;;;;;;;17.55;nan;100280.91;5095178;28;20092;-65
2022/05/22 01:28:41;;;;;;;2.95;1.63;;;;;;;;;;5084209;28;20043;-64
2022/05/22 01:31:06;;;;;;;4.50;1.63;;;;;;;;;;5077844;28;20036;-66
2022/05/22 01:33:36;;;;;;;4.05;1.52;;;;;;;17.44;nan;100306.81;5081058;28;20694;-65
2022/05/22 01:36:03;;;;;;;2.65;1.38;;;;;;;17.38;nan;100300.72;5075535;28;20028;-65
2022/05/22 01:38:29;;;;;;;8.02;1.70;;;;;;;;;;5084770;28;20036;-70
2022/05/22 01:40:54;;;;;;;2.25;1.33;;;;;;;;;;5080823;28;20111;-69
2022/05/22 01:43:19;;;;;;;4.23;1.70;;;;;;;;;;5082937;28;20040;-70
2022/05/22 01:45:45;;;;;;;2.65;1.50;;;;;;;;;;5088975;28;20717;-70
2022/05/22 01:48:11;;;;;;;5.65;1.65;;;;;;;;;;5086409;28;20446;-70
2022/05/22 01:50:38;;;;;;;6.43;1.52;;;;;;;;;;5096515;28;20043;-71
2022/05/22 01:53:03;;;;;;;2.00;1.30;;;;;;;;;;5101828;28;20041;-71
2022/05/22 01:55:29;;;;;;;1.92;1.48;;;;;;;;;;5088950;28;20032;-70
2022/05/22 01:57:54;;;;;;;2.90;1.60;;;;;;;;;;5088347;28;20040;-70
2022/05/22 02:00:19;;;;;;;3.73;1.53;;;;;;;;;;5094235;28;20598;-71
2022/05/22 02:02:46;;;;;;;3.25;1.67;;;;;;;;;;5080980;28;20043;-70
2022/05/22 02:05:12;;;;;;;3.22;1.50;;;;;;;;;;5077344;28;20466;-70
2022/05/22 02:10:22;;;;;;;2.25;1.90;;;;;;;;;;5079588;28;20040;-71
2022/05/22 02:12:47;;;;;;;3.88;1.90;;;;;;;;;;5073810;28;20044;-71
2022/05/22 02:15:12;;;;;;;3.17;2.17;;;;;;;;;;5079670;28;20607;-71
2022/05/22 02:17:38;;;;;;;3.30;1.90;;;;;;;;;;5079269;28;20458;-70
2022/05/22 02:20:03;;;;;;;3.07;1.87;;;;;;;;;;5089147;28;20291;-71
2022/05/22 02:22:29;;;;;;;3.53;1.80;;;;;;;16.55;nan;100278.00;5077070;28;20541;-71
2022/05/22 02:24:54;;;;;;;3.92;1.90;;;;;;;;;;5085652;28;20047;-71
2022/05/22 02:27:20;;;;;;;3.45;2.13;;;;;;;;;;5079456;28;20655;-63
2022/05/22 02:29:45;;;;;;;3.35;1.77;;;;;;;;;;5084464;28;20040;-64
2022/05/22 02:32:11;;;;;;;2.72;1.80;;;;;;;;;;5079415;28;20428;-63
2022/05/22 02:34:36;;;;;;;8.30;2.20;;;;;;;;;;5086345;28;20464;-64
2022/05/22 02:37:02;;;;;;;3.30;1.60;;;;;;;;;;5097140;28;20092;-64
2022/05/22 02:39:27;;;;;;;2.78;1.65;;;;;;;;;;5080791;28;20358;-70
2022/05/22 02:41:53;;;;;;;4.33;2.00;;;;;;;;;;5081170;28;20028;-70
2022/05/22 02:44:18;;;;;;;3.17;1.77;;;;;;;;;;5089889;28;20422;-64
2022/05/22 02:46:43;;;;;;;3.20;1.95;;;;;;;;;;5090750;28;20040;-65
2022/05/22 02:49:09;;;;;;;5.40;1.70;;;;;;;;;;5081155;28;20044;-69
2022/05/22 02:51:35;;;;;;;5.45;1.95;;;;;;;;;;5074550;28;20040;-70
2022/05/22 02:54:00;;;;;;;4.55;1.90;;;;;;;;;;5083080;28;20039;-70
2022/05/22 02:56:26;;;;;;;9.85;1.92;;;;;;;;;;5084449;28;20036;-70
2022/05/22 02:58:51;;;;;;;8.68;2.13;;;;;;;;;;5079680;28;20047;-71
2022/05/22 03:01:16;;;;;;;8.20;2.30;;;;;;;;;;5082886;28;20043;-71
2022/05/22 03:03:41;;;;;;;5.40;2.20;;;;;;;;;;5090471;28;20397;-71
2022/05/22 03:08:51;;;;;;;8.40;2.42;;;;;;;;;;5083246;28;20032;-71
2022/05/22 03:11:16;;;;;;;3.58;2.03;;;;;;;15.83;nan;100354.16;5083613;28;20048;-70
2022/05/22 03:13:42;;;;;;;6.50;2.60;;;;;;;;;;5077781;28;20032;-71
2022/05/22 03:16:07;;;;;;;6.70;2.30;;;;;;;;;;5084134;28;20063;-71
2022/05/22 03:18:32;;;;;;;5.15;2.30;;;;;;;;;;5081793;28;20517;-70
2022/05/22 03:20:58;;;;;;;8.77;2.33;;;;;;;15.71;nan;100321.75;5083512;28;20028;-70
2022/05/22 03:23:23;;;;;;;5.18;2.30;;;;;;;;;;5089596;28;20308;-70
2022/05/22 03:25:49;;;;;;;4.37;2.30;;;;;;;;;;5098239;27;20032;-70
2022/05/22 03:28:15;;;;;;;5.13;2.38;;;;;;;;;;5087440;28;20040;-71
2022/05/22 03:30:40;;;;;;;3.50;2.10;;;;;;;;;;5083175;28;20060;-70
2022/05/22 03:33:06;;;;;;;7.15;2.70;;;;;;;;;;5086619;28;20113;-70
2022/05/22 03:35:31;;;;;;;7.67;2.27;;;;;;;;;;5080363;28;20089;-70
2022/05/22 03:37:56;;;;;;;8.30;2.47;;;;;;;;;;5084000;28;20327;-72
2022/05/22 03:40:22;;;;;;;7.57;2.60;;;;;;;;;;5084547;28;20277;-71
2022/05/22 03:42:47;;;;;;;6.43;2.80;;;;;;;;;;5087272;28;20501;-71
2022/05/22 03:45:12;;;;;;;6.60;2.60;;;;;;;;;;5104284;27;20031;-70
2022/05/22 03:47:41;;;;;;;6.43;2.20;;;;;;;;;;5109049;28;20066;-71
2022/05/22 03:50:07;;;;;;;8.43;2.70;;;;;;;;;;5100316;28;20040;-71
2022/05/22 03:52:34;;;;;;;8.10;2.53;;;;;;;;;;5091757;28;20032;-70
2022/05/22 03:54:59;;;;;;;8.82;2.55;;;;;;;;;;5102375;28;20070;-69
2022/05/22 03:57:24;;;;;;;5.17;2.30;;;;;;;;;;5112664;28;20040;-71
2022/05/22 03:59:50;;;;;;;6.93;2.60;;;;;;;;;;5112217;28;20610;-72
2022/05/22 04:02:15;;;;;;;6.72;2.42;;;;;;;;;;5113423;28;20035;-72
2022/05/22 04:04:41;;;;;;;7.28;2.60;;;;;;;;;;5097793;28;20102;-70
2022/05/22 04:07:06;;;;;;;4.82;2.28;;;;;;;;;;5092255;28;20044;-69
2022/05/22 04:09:31;;;;;;;6.57;2.20;;;;;;;;;;5089672;28;20178;-71
2022/05/22 04:11:57;;;;;;;5.97;1.98;;;;;;;;;;5077576;28;20041;-70
2022/05/22 04:14:22;;;;;;;4.30;1.95;;;;;;;;;;5090340;28;20071;-71
2022/05/22 04:16:48;;;;;;;7.57;1.90;;;;;;;;;;5080507;28;20032;-70
2022/05/22 04:19:15;;;;;;;5.28;1.85;;;;;;;;;;5084900;28;20093;-70
2022/05/22 04:21:40;;;;;;;4.05;1.75;;;;;;;;;;5090599;28;20120;-71
2022/05/22 04:26:49;;;;;;;6.40;1.90;;;;;;;;;;5089956;28;20284;-71
2022/05/22 04:29:15;;;;;;;4.68;1.90;;;;;;;17.12;nan;100297.34;5092215;28;20470;-71
2022/05/22 04:31:40;;;;;;;12.25;2.50;;;;;;;17.12;nan;100336.44;5077355;28;20474;-71
2022/05/22 04:34:06;;;;;;;7.18;1.90;;;;;;;;;;5104801;28;20096;-71
2022/05/22 04:36:31;;;;;;;8.98;2.75;;;;;;;;;;5095067;28;20570;-71
2022/05/22 04:38:56;;;;;;;9.03;1.80;;;;;;;;;;5077534;28;20489;-70
2022/05/22 04:41:21;;;;;;;4.73;2.10;;;;;;;;;;5088838;28;20269;-71
2022/05/22 04:43:47;;;;;;;9.32;3.13;;;;;;;;;;5080295;28;20123;-71
2022/05/22 04:46:12;;;;;;;5.13;1.83;;;;;;;;;;5092141;28;20406;-71
2022/05/22 04:48:37;;;;;;;5.88;2.22;;;;;;;;;;5082301;28;20032;-64
2022/05/22 04:51:03;;;;;;;6.73;1.90;;;;;;;;;;5081174;28;20433;-65
2022/05/22 04:53:28;;;;;;;3.58;2.00;;;;;;;;;;5088306;28;20112;-63
2022/05/22 04:55:54;;;;;;;5.20;1.88;;;;;;;;;;5083875;28;20036;-63
2022/05/22 04:58:19;;;;;;;4.20;1.75;;;;;;;;;;5084679;28;20042;-64
2022/05/22 05:00:45;;;;;;;4.57;1.92;;;;;;;;;;5084203;28;20043;-64
2022/05/22 05:03:10;;;;;;;8.75;2.08;;;;;;;;;;5091488;28;20385;-64
2022/05/22 05:05:36;;;;;;;6.30;1.95;;;;;;;;;;5088470;28;20028;-64
2022/05/22 05:08:01;;;;;;;9.80;2.10;;;;;;;;;;5085781;28;20032;-64
2022/05/22 05:10:27;;;;;;;6.60;1.90;;;;;;;;;;5082098;28;20287;-64
2022/05/22 05:12:52;;;;;;;6.10;2.30;;;;;;;;;;5080928;28;20074;-64
2022/05/22 05:15:18;;;;;;;5.85;2.22;;;;;;;;;;5080298;28;20058;-64
2022/05/22 05:17:44;;;;;;;4.75;1.95;;;;;;;;;;5074407;28;20856;-71
2022/05/22 05:20:10;;;;;;;4.25;1.90;;;;;;;;;;5079882;28;20036;-71
2022/05/22 05:22:37;;;;;;;6.13;1.92;;;;;;;18.38;nan;100311.31;5078876;28;20032;-71
2022/05/22 05:25:02;;;;;;;3.72;1.90;;;;;;;;;;5080841;28;20055;-71
2022/05/22 05:27:28;;;;;;;6.82;1.83;;;;;;;18.24;nan;100301.31;5074037;28;20131;-70
2022/05/22 05:29:53;;;;;;;5.32;1.90;;;;;;;18.31;nan;100324.19;5096773;28;20134;-64
2022/05/22 05:32:19;;;;;;;4.65;2.10;;;;;;;18.39;nan;100308.41;5100069;28;20093;-64
2022/05/22 05:34:45;;;;;;;4.85;1.75;;;;;;;;;;5084520;28;20458;-64
2022/05/22 05:37:10;;;;;;;4.63;2.00;;;;;;;18.54;nan;100299.47;5085653;28;20110;-64
2022/05/22 05:39:36;;;;;;;3.60;1.75;;;;;;;18.60;nan;100309.00;5092148;28;20284;-64
2022/05/22 05:42:02;;;;;;;4.13;1.95;;;;;;;18.65;nan;100294.81;5083010;28;20033;-64
2022/05/22 05:44:27;;;;;;;5.30;2.00;;;;;;;;;;5081118;28;20447;-64
2022/05/22 05:46:52;;;;;;;4.33;1.73;;;;;;;18.83;nan;100325.38;5078472;28;20035;-64
2022/05/22 05:49:18;;;;;;;4.18;1.92;;;;;;;18.86;nan;100327.47;5083212;28;20757;-71
2022/05/22 05:51:43;;;;;;;8.70;2.28;;;;;;;18.93;nan;100319.94;5076368;28;20121;-70
2022/05/22 05:54:09;;;;;;;4.78;1.90;;;;;;;18.99;nan;100286.00;5075361;28;20493;-70
2022/05/22 05:56:41;;;;;;;4.57;2.13;;;;;;;;;;5074585;28;20111;-71
2022/05/22 05:59:07;;;;;;;3.00;2.05;;;;;;;19.05;nan;100255.50;5080278;28;20047;-70
2022/05/22 06:01:33;;;;;;;3.00;1.80;;;;;;;19.17;nan;100327.94;5087762;28;20020;-71
2022/05/22 06:03:59;;;;;;;5.28;1.98;;;;;;;19.22;nan;100303.06;5089644;28;20069;-71
2022/05/22 06:06:24;;;;;;;5.43;1.73;;;;;;;19.24;nan;100300.91;5092267;28;20414;-70
2022/05/22 06:08:50;;;;;;;5.30;1.98;;;;;;;19.35;nan;100313.06;5086984;28;20401;-71
2022/05/22 06:11:16;;;;;;;7.93;2.03;;;;;;;19.37;nan;100307.44;5081261;28;20025;-70
2022/05/22 06:13:41;;;;;;;4.72;1.95;;;;;;;19.42;nan;100312.72;5083445;28;20040;-70
2022/05/22 06:16:07;;;;;;;7.50;2.28;;;;;;;19.45;nan;100376.25;5094829;28;20405;-70
2022/05/22 06:18:33;;;;;;;3.65;1.80;;;;;;;19.50;nan;100312.88;5086170;28;20037;-71
2022/05/22 06:21:06;;;;;;;2.53;1.88;;;;;;;19.60;nan;100319.97;5078604;28;20374;-71
2022/05/22 06:23:32;;;;;;;3.20;1.85;;;;;;;19.70;nan;100317.19;5087543;28;20035;-70
2022/05/22 06:25:57;;;;;;;5.10;1.60;;;;;;;19.80;nan;100326.16;5084263;28;20535;-71
2022/05/22 06:28:22;;;;;;;7.00;1.90;;;;;;;19.79;nan;100361.97;5093452;28;20056;-71
2022/05/22 06:30:48;;;;;;;5.78;1.92;;;;;;;19.93;nan;100328.91;5092439;28;20067;-70
2022/05/22 06:33:17;;;;;;;4.15;1.88;;;;;;;19.89;nan;100337.78;5092660;28;20399;-62
2022/05/22 06:35:43;;;;;;;6.13;1.63;;;;;;;19.92;nan;100316.63;5076844;28;20043;-64
2022/05/22 06:39:49;;;;;;;5.43;2.00;;;;;;;19.96;nan;100333.66;5079003;28;20417;-64
2022/05/22 06:40:58;;;;;;;;;;;;;;;20.09;nan;100318.78;5092471;28;20032;-64
2022/05/22 06:43:23;;;;;;;4.60;1.90;;;;;;;20.15;nan;100312.28;5080487;28;19913;-63
2022/05/22 06:45:50;;;;;;;4.75;1.80;;;;;;;20.24;nan;100306.28;5080816;28;20111;-70
2022/05/22 06:48:19;;;;;;;4.00;1.80;;;;;;;20.26;nan;100331.63;5105486;28;20462;-70
2022/05/22 06:50:44;;;;;;;5.75;1.73;;;;;;;20.25;nan;100321.22;5083879;28;20028;-70
2022/05/22 06:53:10;;;;;;;3.63;1.85;;;;;;;20.22;nan;100311.13;5081560;28;20032;-70
2022/05/22 06:55:35;;;;;;;4.38;2.00;;;;;;;20.13;nan;100292.25;5089319;28;20401;-71
2022/05/22 06:58:01;;;;;;;11.20;2.00;;;;;;;20.06;nan;100305.19;5088971;28;20028;-69
2022/05/22 07:00:27;;;;;;;2.80;1.73;;;;;;;20.09;nan;100318.78;5080510;28;20043;-70
2022/05/22 07:02:53;;;;;;;4.63;2.50;;;;;;;;;;5068117;28;20036;-68
2022/05/22 07:05:19;;;;;;;3.38;1.92;;;;;;;20.20;nan;100324.78;5035234;28;20694;-64
2022/05/22 07:07:45;;;;;;;3.45;1.90;;;;;;;20.16;nan;100361.19;5034584;28;20043;-66
2022/05/22 07:10:10;;;;;;;4.85;2.22;;;;;;;20.22;nan;100321.81;5037192;28;20032;-68
2022/05/22 07:12:36;;;;;;;4.93;1.60;;;;;;;20.22;nan;100324.50;5035568;28;20032;-62
2022/05/22 07:15:03;;;;;;;3.05;1.77;;;;;;;20.32;nan;100313.63;5034122;28;20126;-66
2022/05/22 07:17:30;;;;;;;2.45;1.45;;;;;;;20.26;nan;100269.34;5033945;28;20031;-62
2022/05/22 07:19:56;;;;;;;4.22;1.58;;;;;;;20.35;nan;100302.34;5033802;28;20039;-64
2022/05/22 07:22:23;;;;;;;3.10;1.58;;;;;;;20.38;nan;100304.44;5033917;28;20078;-66
2022/05/22 07:24:49;;;;;;;3.55;1.67;;;;;;;20.42;nan;100301.97;5035157;28;20103;-65
2022/05/22 07:27:15;;;;;;;5.57;1.65;;;;;;;20.50;nan;100326.16;5034957;28;20044;-60
2022/05/22 07:29:41;;;;;;;5.10;1.77;;;;;;;20.54;nan;100300.44;5034531;28;20159;-66
2022/05/22 07:32:08;;;;;;;6.35;1.75;;;;;;;20.63;nan;100300.56;5033634;28;20052;-67
2022/05/22 07:34:34;;;;;;;4.78;1.40;;;;;;;20.63;nan;100289.06;5030823;28;20564;-63
2022/05/22 07:37:01;;;;;;;10.30;1.70;;;;;;;;;;5033335;28;20059;-63
2022/05/22 07:39:26;;;;;;;6.20;1.92;;;;;;;20.77;nan;100297.91;5030900;28;20043;-61
2022/05/22 07:41:53;;;;;;;4.15;1.63;;;;;;;20.81;nan;100326.47;5036858;28;20109;-59
2022/05/22 07:44:19;;;;;;;5.07;1.73;;;;;;;20.99;nan;100297.25;5030788;28;20048;-60
2022/05/22 07:46:44;;;;;;;6.45;1.50;;;;;;;21.02;nan;100278.72;5036256;28;20378;-63
2022/05/22 07:50:16;;;;;;;4.57;1.40;;;;;;;21.03;nan;100292.88;5032305;28;20047;-63
2022/05/22 07:51:56;;;;;;;4.55;1.20;;;;;;;21.10;nan;100289.81;5033626;28;20032;-70
2022/05/22 07:54:21;;;;;;;2.92;1.20;;;;;;;21.23;nan;100272.94;5037456;28;20048;-70
2022/05/22 07:56:47;;;;;;;3.42;1.25;;;;;;;21.19;nan;100290.69;5056202;28;20051;-68
2022/05/22 07:59:12;;;;;;;1.95;1.35;;;;;;;21.18;nan;100297.13;5037680;28;20036;-69
2022/05/22 08:01:38;;;;;;;6.10;2.10;;;;;;;21.13;nan;100259.75;5035975;28;20035;-69
2022/05/22 08:04:06;;;;;;;4.60;1.67;;;;;;;21.08;nan;100289.31;5034075;28;20031;-69
2022/05/22 08:06:33;;;;;;;2.22;1.45;;;;;;;21.09;nan;100280.97;5043863;28;20039;-71
2022/05/22 08:08:58;;;;;;;4.38;1.15;;;;;;;21.13;nan;100257.09;5094187;28;20034;-71
2022/05/22 08:11:24;;;;;;;4.07;1.40;;;;;;;21.24;nan;100220.97;5084770;28;20028;-66
2022/05/22 08:13:49;;;;;;;3.03;1.80;;;;;;;21.08;nan;100262.53;5091908;28;20032;-64
2022/05/22 08:16:15;;;;;;;7.13;1.33;;;;;;;21.22;nan;100264.13;5091053;28;20759;-65
2022/05/22 08:18:40;;;;;;;5.18;1.60;;;;;;;21.23;nan;100252.28;5078509;28;20044;-66
2022/05/22 08:21:06;;;;;;;5.75;1.25;;;;;;;21.27;nan;100255.19;5090481;28;20032;-65
2022/05/22 08:23:32;;;;;;;2.65;1.65;;;;;;;21.34;nan;100260.94;5086048;28;20547;-70
2022/05/22 08:25:58;;;;;;;4.32;1.30;;;;;;;21.39;nan;100246.63;5106854;28;20036;-70
2022/05/22 08:28:23;;;;;;;3.92;1.42;;;;;;;21.37;nan;100252.28;5089883;28;20413;-72
2022/05/22 08:30:49;;;;;;;6.32;1.70;;;;;;;21.45;nan;100240.09;5091398;28;20032;-71
2022/05/22 08:33:14;;;;;;;1.40;1.30;;;;;;;21.53;nan;100301.00;5090954;28;20032;-72
2022/05/22 08:35:43;;;;;;;4.85;1.80;;;;;;;21.64;nan;100168.41;5089759;28;20055;-72
2022/05/22 08:38:08;;;;;;;5.28;1.45;;;;;;;21.67;nan;100264.25;5076528;28;20035;-71
2022/05/22 08:40:46;;;;;;;2.85;1.50;;;;;;;21.77;nan;100246.38;5096046;28;20036;-64
2022/05/22 08:43:16;;;;;;;1.48;1.33;;;;;;;21.86;nan;100260.59;5072389;28;20029;-64
2022/05/22 08:45:46;;;;;;;2.50;1.58;;;;;;;;;;5073135;28;20413;-63
2022/05/22 08:48:32;;;;;;;2.85;1.70;;;;;;;21.92;nan;100262.06;5091081;28;20038;-64
2022/05/22 08:50:59;;;;;;;2.40;1.42;;;;;;;21.94;nan;100253.75;5085946;28;20074;-62
2022/05/22 08:53:38;;;;;;;3.58;1.60;;;;;;;21.98;nan;100252.84;5103557;28;20020;-62
2022/05/22 08:59:06;;;;;;;2.00;1.30;;;;;;;21.95;nan;100248.06;5085263;28;20028;-64
2022/05/22 09:01:40;;;;;;;4.40;1.30;;;;;;;;;;5087161;28;20040;-64
2022/05/22 09:04:24;;;;;;;1.77;1.42;;;;;;;22.07;nan;100244.81;5091143;28;20040;-63
2022/05/22 09:07:00;;;;;;;3.63;1.55;;;;;;;22.13;nan;100222.16;5116296;28;20040;-64
2022/05/22 09:09:28;;;;;;;4.30;1.20;;;;;;;22.12;nan;100247.38;5102855;28;20035;-70
2022/05/22 09:12:22;;;;;;;4.25;1.70;;;;;;;22.24;nan;100239.63;5098332;28;20040;-70
2022/05/22 09:15:25;;;;;;;8.38;1.50;;;;;;;22.34;nan;100217.09;5089426;28;20040;-70
2022/05/22 09:17:54;;;;;;;6.35;3.03;;;;;;;22.36;nan;100224.84;5085032;28;20096;-70
2022/05/22 09:20:29;;;;;;;3.17;1.50;;;;;;;22.44;nan;100229.47;5083057;28;20035;-70
2022/05/22 09:23:03;;;;;;;4.03;2.47;;;;;;;22.51;nan;100237.88;5082612;28;20275;-70
2022/05/22 09:25:38;;;;;;;7.18;1.50;;;;;;;22.51;nan;100225.22;5086745;28;20075;-69
2022/05/22 09:28:12;;;;;;;3.53;1.30;;;;;;;22.41;nan;100222.81;5099412;28;20045;-69
2022/05/22 09:30:51;;;;;;;6.00;2.40;;;;;;;22.37;nan;100224.53;5092102;28;20032;-70
2022/05/22 09:33:37;;;;;;;10.30;6.18;;;;;;;22.46;nan;100206.59;5093418;28;20036;-69
2022/05/22 09:36:09;;;;;;;4.63;2.97;;;;;;;22.56;nan;100212.78;5105873;28;20067;-70
2022/05/22 09:38:53;;;;;;;6.70;4.90;;;;;;;22.69;nan;100211.88;5101342;28;20031;-70
2022/05/22 09:41:31;;;;;;;7.32;4.55;;;;;;;22.79;nan;100200.06;5088845;28;20047;-69
2022/05/22 09:44:09;;;;;;;17.73;10.85;;;;;;;22.88;nan;100223.16;5089584;28;20040;-70
2022/05/22 09:46:52;;;;;;;6.60;2.97;;;;;;;22.91;nan;100211.81;5086445;28;20132;-70
2022/05/22 09:49:55;;;;;;;11.77;6.65;;;;;;;22.88;nan;100215.09;5100884;28;20036;-71
2022/05/22 09:52:33;;;;;;;7.20;3.60;;;;;;;23.01;nan;100189.25;5081306;28;20042;-71
2022/05/22 09:55:08;;;;;;;7.13;3.58;;;;;;;23.11;nan;100210.44;5080250;28;20498;-70
2022/05/22 09:57:48;;;;;;;3.30;2.28;;;;;;;23.17;nan;100227.19;5095521;28;20376;-70
2022/05/22 10:00:37;;;;;;;1.73;1.33;;;;;;;23.22;nan;100227.03;5082586;28;20032;-71
2022/05/22 10:03:15;;;;;;;6.00;2.58;;;;;;;23.26;nan;100208.41;5082893;28;20036;-70
2022/05/22 10:06:11;;;;;;;2.25;0.90;;;;;;;23.28;nan;100214.25;5085353;28;20028;-70
2022/05/22 10:09:04;;;;;;;3.22;1.35;;;;;;;23.28;nan;100201.63;5087053;28;20048;-70
2022/05/22 10:11:47;;;;;;;2.53;1.20;;;;;;;23.27;nan;100201.91;5090132;28;20085;-71
2022/05/22 10:14:49;;;;;;;1.90;0.85;;;;;;;23.19;nan;100208.09;5069041;28;20028;-71
2022/05/22 10:17:52;;;;;;;1.58;0.88;;;;;;;23.19;nan;100216.16;5084526;28;20043;-72
2022/05/22 10:20:21;;;;;;;1.00;0.77;;;;;;;;;;5082197;28;20090;-70
2022/05/22 10:22:55;;;;;;;8.63;5.97;;;;;;;23.30;nan;100207.47;5088013;28;20131;-70
2022/05/22 10:25:29;;;;;;;7.88;4.90;;;;;;;23.32;nan;100202.56;5085381;28;20040;-70
2022/05/22 10:28:01;;;;;;;16.65;10.95;;;;;;;23.36;nan;100202.72;5096744;28;20040;-70
2022/05/22 10:30:32;;;;;;;16.23;7.40;;;;;;;23.36;nan;100206.19;5085385;28;20035;-70
2022/05/22 10:33:26;;;;;;;7.07;3.88;;;;;;;23.32;nan;100204.44;5082096;28;20082;-71
2022/05/22 10:35:54;;;;;;;3.72;1.42;;;;;;;23.35;nan;100198.47;5087293;28;20068;-71
2022/05/22 10:38:22;;;;;;;5.65;2.17;;;;;;;23.38;nan;100188.97;5107978;28;20116;-70
2022/05/22 10:43:40;;;;;;;2.15;1.25;;;;;;;23.62;nan;100208.09;5093568;28;20039;-70
2022/05/22 10:46:06;;;;;;;1.48;1.23;;;;;;;23.60;nan;100153.84;5092562;28;20039;-70
2022/05/22 10:48:33;;;;;;;1.98;1.10;;;;;;;23.75;nan;100160.66;5090734;28;20439;-70
2022/05/22 10:51:04;;;;;;;5.75;1.38;;;;;;;23.81;nan;100156.72;5090202;28;20397;-70
2022/05/22 10:53:29;;;;;;;3.88;0.98;;;;;;;23.80;nan;100171.28;5092155;28;20089;-70
2022/05/22 10:56:02;;;;;;;6.15;1.75;;;;;;;23.75;nan;100187.56;5093474;28;20057;-70
2022/05/22 10:58:33;;;;;;;3.55;2.00;;;;;;;23.76;nan;100176.50;5093196;28;20043;-69
2022/05/22 11:01:06;;;;;;;2.05;1.58;;;;;;;23.84;nan;100139.16;5091736;28;20063;-69
2022/05/22 11:03:34;;;;;;;16.30;6.45;;;;;;;23.81;nan;100162.09;5087775;28;20114;-71
2022/05/22 11:06:14;;;;;;;6.65;2.90;;;;;;;23.83;nan;100129.50;5086212;28;20028;-71
2022/05/22 11:08:46;;;;;;;8.13;1.73;;;;;;;23.96;nan;100166.94;5080985;28;20029;-70
2022/05/22 11:11:18;;;;;;;5.65;0.95;;;;;;;23.99;nan;100147.50;5086700;28;20028;-71
2022/05/22 11:13:45;;;;;;;3.38;0.80;;;;;;;24.00;nan;100161.72;5093522;28;20425;-71
2022/05/22 11:16:26;;;;;;;4.55;2.65;;;;;;;23.98;nan;100153.97;5090599;28;20039;-71
2022/05/22 11:19:06;;;;;;;6.80;2.05;;;;;;;23.96;nan;100226.13;5082044;28;20553;-71
2022/05/22 11:21:54;;;;;;;3.80;1.10;;;;;;;24.08;nan;100135.91;5093924;28;20034;-70
2022/05/22 11:24:28;;;;;;;3.00;1.10;;;;;;;24.17;nan;100142.06;5094615;28;20043;-71
2022/05/22 11:27:16;;;;;;;3.38;1.27;;;;;;;24.24;nan;100130.78;5105280;28;20052;-71
2022/05/22 11:29:59;;;;;;;2.83;1.48;;;;;;;24.31;nan;100137.25;5090868;28;20048;-70
2022/05/22 11:32:44;;;;;;;3.15;1.45;;;;;;;24.44;nan;100140.03;5092024;28;20080;-70
2022/05/22 11:35:31;;;;;;;3.05;0.90;;;;;;;24.59;nan;100136.81;5088786;28;20454;-70
2022/05/22 11:38:06;;;;;;;3.35;1.20;;;;;;;24.71;nan;100103.78;5083498;28;20123;-70
2022/05/22 11:40:38;;;;;;;5.55;0.82;;;;;;;24.67;nan;100125.22;5083739;28;20085;-70
2022/05/22 11:43:45;;;;;;;5.88;1.08;;;;;;;24.82;nan;100078.84;5080138;28;20086;-71
2022/05/22 11:46:38;;;;;;;10.90;1.20;;;;;;;24.85;nan;100120.50;5061304;28;20111;-70
2022/05/22 11:49:31;;;;;;;1.90;0.68;;;;;;;24.80;nan;100110.69;5094891;28;20035;-70
2022/05/22 11:55:20;;;;;;;7.82;1.30;;;;;;;24.80;nan;100132.25;5079571;28;20075;-70
2022/05/22 11:58:15;;;;;;;7.72;0.90;;;;;;;24.82;nan;100092.31;5092050;28;20032;-69
2022/05/22 12:01:15;;;;;;;6.97;1.27;;;;;;;24.94;nan;100088.13;5087101;28;20567;-70
2022/05/22 12:04:03;;;;;;;4.63;0.90;;;;;;;24.94;nan;100080.03;5088555;28;20044;-70
2022/05/22 12:06:44;;;;;;;2.23;0.77;;;;;;;25.05;nan;100092.78;5105979;27;20024;-71
2022/05/22 12:09:23;;;;;;;2.42;0.80;;;;;;;25.03;nan;100083.44;5082148;28;20089;-74
2022/05/22 12:12:10;;;;;;;2.75;0.68;;;;;;;25.11;nan;100038.69;5095958;28;20042;-74
2022/05/22 12:14:54;;;;;;;4.53;1.08;;;;;;;25.19;nan;100091.75;5073142;28;20036;-75
2022/05/22 12:17:28;;;;;;;4.22;0.60;;;;;;;25.16;nan;100070.81;5096952;28;20063;-74
2022/05/22 12:20:21;;;;;;;1.80;0.80;;;;;;;25.23;nan;100101.53;5096718;28;20044;-74
2022/05/22 12:23:20;;;;;;;2.30;0.82;;;;;;;25.16;nan;100082.38;5085599;28;20111;-74
2022/05/22 12:25:55;;;;;;;1.15;0.77;;;;;;;25.14;nan;100070.34;5100965;28;20394;-74
2022/05/22 12:28:39;;;;;;;2.92;0.75;;;;;;;25.29;nan;100099.44;5083264;28;20047;-75
2022/05/22 12:31:46;;;;;;;7.40;0.82;;;;;;;25.29;nan;100075.16;5091425;28;20566;-74
2022/05/22 12:34:18;;;;;;;3.28;0.88;;;;;;;25.27;nan;100068.53;5090810;28;20390;-72
2022/05/22 12:36:45;;;;;;;4.65;1.55;;;;;;;;;;5090242;28;20032;-73
2022/05/22 12:39:13;;;;;;;5.72;1.00;;;;;;;25.34;nan;100048.00;5079111;28;20123;-74
2022/05/22 12:42:17;;;;;;;9.10;0.95;;;;;;;25.20;nan;100061.75;5074274;28;20029;-74
2022/05/22 12:44:44;;;;;;;2.20;0.70;;;;;;;25.10;nan;100088.31;5067959;28;20074;-72
2022/05/22 12:47:15;;;;;;;2.33;0.70;;;;;;;25.27;nan;100069.31;5068141;28;20051;-72
2022/05/22 12:49:52;;;;;;;10.02;1.48;;;;;;;25.30;nan;100065.16;5062678;28;20050;-73
2022/05/22 12:52:23;;;;;;;3.53;0.90;;;;;;;25.21;nan;100074.13;5064524;28;20669;-73
2022/05/22 12:54:55;;;;;;;4.65;1.00;;;;;;;;;;5067043;28;20136;-74
2022/05/22 12:57:21;;;;;;;4.15;0.93;;;;;;;25.22;nan;100048.75;5067860;28;20035;-74
2022/05/22 12:59:58;;;;;;;6.32;0.80;;;;;;;25.25;nan;100037.31;5069108;28;20522;-70
2022/05/22 13:02:32;;;;;;;3.90;0.82;;;;;;;25.22;nan;100019.09;5070214;28;20032;-70
2022/05/22 13:04:58;;;;;;;4.53;0.70;;;;;;;;;;5063262;28;20060;-75
2022/05/22 13:07:31;;;;;;;2.85;0.73;;;;;;;25.34;nan;100056.09;5068457;28;20028;-69